CYLW/YLW METAR and TAF weather

Enter ICAO airport designator
Station Type Date Time Source
CYLW METAR 2019/05/25 15:00 UTC NOAA

CYLW 251500Z AUTO 35003KT 9SM OVC055 13/12 A2983 RMK SLP105 DENSITY ALT 1600FT


Station Type Date Time Source
CYLW Decoded METAR 2019/05/25 15:00 UTC NOAA

Kelowna Airport, Canada (CYLW) 49-58N 119-23W 430M
May 25, 2019 - 11:00 AM EDT / 2019.05.25 1500 UTC
Wind: from the N (350 degrees) at 3 MPH (3 KT):0
Visibility: 9 mile(s):0
Sky conditions: overcast
Temperature: 55 F (13 C)
Dew Point: 53 F (12 C)
Relative Humidity: 93%
Pressure (altimeter): 29.83 in. Hg (1010 hPa)
ob: CYLW 251500Z AUTO 35003KT 9SM OVC055 13/12 A2983 RMK SLP105 DENSITY ALT 1600FT
cycle: 15

Station Type Date Time Source
CYLW TAF 2019/05/25 13:39 UTC NOAA

TAF CYLW 251238Z 2513/2601 VRB03KT P6SM SCT040 BKN080 OVC120
TEMPO 2513/2516 P6SM -SHRA SCT020 BKN040 OVC080
FM251600 34006KT P6SM -SHRA OVC040 PROB40 2516/2601 3SM TSRA OVC020CB
RMK FCST BASED ON AUTO OBS. NXT FCST BY 251900Z

Example: see airport list